Terminal Aerodrome Forecast
Issued by NWS

Home | Current Version | Previous Version | Text Only | Print | Product List | Glossary On
Versions: 1 2 3 4 5 6 7 8 9 10 11 12 13 14 15 16 17 18 19 20 21 22 23 24 25 26 27 28 29 30
000
FTUS43 KLMK 250820 AAA
TAFHNB
TAF AMD
KHNB 250820Z 2508/2606 19004KT P6SM -SHRA OVC005
      TEMPO 2509/2513 P6SM -SHRA OVC015
     FM251500 21005KT P6SM -SHRA SCT025 BKN035 PROB30 2518/2524 4SM
      -TSRA BR OVC035CB
     FM260000 VRB04KT P6SM -SHRA OVC022 PROB30 2600/2606 4SM -TSRA
      BR OVC015CB=

USA.gov is the U.S. government's official web portal to all federal, state and local government web resources and services.